createdAt,value
2023-09-08T00:00:24.286Z,93708.41
2023-09-08T00:02:53.153Z,93711.94
2023-09-08T00:05:21.766Z,93704.25
2023-09-08T00:07:50.623Z,93711.41
2023-09-08T00:10:19.226Z,93713.22
2023-09-08T00:12:47.858Z,93715.38
2023-09-08T00:15:16.341Z,93714.59
2023-09-08T00:17:44.417Z,93716.13
2023-09-08T00:20:13.303Z,93727.16
2023-09-08T00:22:42.270Z,93712.03
2023-09-08T00:25:11.104Z,93712.91
2023-09-08T00:27:39.687Z,93714.34
2023-09-08T00:30:09.369Z,93716.50
2023-09-08T00:32:38.182Z,93719.13
2023-09-08T00:35:13.269Z,93719.06
2023-09-08T00:37:43.085Z,93720.53
2023-09-08T00:40:13.204Z,93722.03
2023-09-08T00:42:41.760Z,93712.59
2023-09-08T00:45:10.895Z,93717.84
2023-09-08T00:47:39.646Z,93712.22
2023-09-08T00:50:09.024Z,93721.00
2023-09-08T00:52:38.089Z,93699.88
2023-09-08T00:55:07.255Z,93713.34
2023-09-08T00:57:36.094Z,93718.50
2023-09-08T01:00:08.124Z,93722.09
2023-09-08T01:02:36.917Z,93718.22
2023-09-08T01:05:05.696Z,93715.50
2023-09-08T01:07:35.413Z,93724.31
2023-09-08T01:10:08.596Z,93728.69
2023-09-08T01:12:37.395Z,93727.75
2023-09-08T01:15:10.084Z,93718.81
2023-09-08T01:17:38.865Z,93730.22
2023-09-08T01:20:31.320Z,93727.09
2023-09-08T01:23:11.529Z,93732.47
2023-09-08T01:26:07.373Z,93726.63
2023-09-08T01:28:36.638Z,93737.50
2023-09-08T01:31:06.352Z,93728.75
2023-09-08T01:33:35.791Z,93734.41
2023-09-08T01:36:04.468Z,93733.22
2023-09-08T01:38:33.552Z,93726.81
2023-09-08T01:41:04.149Z,93738.16
2023-09-08T01:43:32.765Z,93737.25
2023-09-08T01:46:00.806Z,93736.66
2023-09-08T01:48:29.813Z,93739.97
2023-09-08T01:50:58.321Z,93745.53
2023-09-08T01:53:26.814Z,93746.97
2023-09-08T01:55:55.423Z,93749.50
2023-09-08T01:58:24.164Z,93753.13
2023-09-08T02:00:56.312Z,93753.44
2023-09-08T02:03:25.043Z,93746.78
2023-09-08T02:05:54.268Z,93750.00
2023-09-08T02:08:22.866Z,93752.94
2023-09-08T02:10:51.381Z,93752.22
2023-09-08T02:13:19.980Z,93749.94
2023-09-08T02:15:48.963Z,93757.31
2023-09-08T02:18:17.615Z,93758.91
2023-09-08T02:20:46.164Z,93769.38
2023-09-08T02:23:14.885Z,93763.94
2023-09-08T02:25:43.415Z,93767.91
2023-09-08T02:28:11.965Z,93767.38
2023-09-08T02:30:40.504Z,93774.69
2023-09-08T02:33:08.928Z,93776.50
2023-09-08T02:35:43.899Z,93784.56
2023-09-08T02:38:12.912Z,93787.41
2023-09-08T02:40:41.401Z,93789.25
2023-09-08T02:43:10.050Z,93783.03
2023-09-08T02:45:38.689Z,93787.72
2023-09-08T02:48:07.595Z,93792.41
2023-09-08T02:50:36.217Z,93798.66
2023-09-08T02:53:04.822Z,93802.03
2023-09-08T02:55:33.493Z,93808.25
2023-09-08T02:58:02.010Z,93804.88
2023-09-08T03:00:30.546Z,93802.25
2023-09-08T03:02:59.144Z,93803.31
2023-09-08T03:05:28.447Z,93803.81
2023-09-08T03:07:57.211Z,93805.38
2023-09-08T03:10:25.844Z,93800.97
2023-09-08T03:12:54.455Z,93809.00
2023-09-08T03:15:23.600Z,93804.03
2023-09-08T03:17:52.240Z,93805.56
2023-09-08T03:20:20.963Z,93808.69
2023-09-08T03:22:49.785Z,93814.91
2023-09-08T03:25:18.393Z,93818.00
2023-09-08T03:27:47.099Z,93823.72
2023-09-08T03:30:16.062Z,93814.34
2023-09-08T03:32:44.550Z,93825.50
2023-09-08T03:35:13.207Z,93831.75
2023-09-08T03:37:41.832Z,93827.09
2023-09-08T03:40:11.472Z,93833.84
2023-09-08T03:42:40.166Z,93835.69
2023-09-08T03:45:09.226Z,93827.69
2023-09-08T03:47:37.848Z,93832.88
2023-09-08T03:50:06.896Z,93832.38
2023-09-08T03:52:35.567Z,93832.38
2023-09-08T03:55:04.311Z,93836.28
2023-09-08T03:57:33.393Z,93827.72
2023-09-08T04:00:01.989Z,93834.47
2023-09-08T04:02:30.386Z,93811.06
2023-09-08T04:04:59.140Z,93836.78
2023-09-08T04:07:28.094Z,93848.50
2023-09-08T04:09:56.736Z,93854.47
2023-09-08T04:12:25.353Z,93846.94
2023-09-08T04:14:54.077Z,93848.75
2023-09-08T04:17:22.903Z,93842.25
2023-09-08T04:19:52.116Z,93864.88
2023-09-08T04:22:20.347Z,93851.59
2023-09-08T04:24:48.866Z,93855.75
2023-09-08T04:27:17.426Z,93858.34
2023-09-08T04:29:46.067Z,93856.78
2023-09-08T04:32:14.614Z,93869.75
2023-09-08T04:34:44.802Z,93869.75
2023-09-08T04:37:13.478Z,93867.13
2023-09-08T04:39:42.287Z,93866.09
2023-09-08T04:42:10.893Z,93864.53
2023-09-08T04:44:39.431Z,93872.84
2023-09-08T04:47:07.702Z,93870.78
2023-09-08T04:49:36.404Z,93865.84
2023-09-08T04:52:05.208Z,93873.94
2023-09-08T04:54:34.265Z,93870.81
2023-09-08T04:57:16.196Z,93878.84
2023-09-08T04:59:51.236Z,93879.63
2023-09-08T05:02:21.227Z,93868.97
2023-09-08T05:04:50.304Z,93882.47
2023-09-08T05:07:21.405Z,93881.41
2023-09-08T05:09:50.122Z,93893.63
2023-09-08T05:12:18.793Z,93895.44
2023-09-08T05:14:47.663Z,93886.88
2023-09-08T05:17:16.217Z,93891.03
2023-09-08T05:19:44.731Z,93895.72
2023-09-08T05:22:13.372Z,93872.81
2023-09-08T05:24:41.978Z,93895.91
2023-09-08T05:27:10.562Z,93895.66
2023-09-08T05:29:39.222Z,93894.63
2023-09-08T05:32:07.803Z,93893.81
2023-09-08T05:34:36.734Z,93899.03
2023-09-08T05:37:05.443Z,93892.78
2023-09-08T05:39:34.063Z,93899.28
2023-09-08T05:42:02.654Z,93897.22
2023-09-08T05:44:31.234Z,93904.75
2023-09-08T05:47:00.461Z,93881.31
2023-09-08T05:49:29.277Z,93905.25
2023-09-08T05:51:58.001Z,93893.56
2023-09-08T05:54:26.857Z,93892.25
2023-09-08T05:56:55.415Z,93897.19
2023-09-08T05:59:24.034Z,93901.13
2023-09-08T06:01:52.782Z,93902.94
2023-09-08T06:04:21.328Z,93897.78
2023-09-08T06:06:50.187Z,93903.22
2023-09-08T06:09:19.271Z,93898.78
2023-09-08T06:11:48.546Z,93896.69
2023-09-08T06:14:17.132Z,93904.75
2023-09-08T06:16:45.795Z,93902.16
2023-09-08T06:19:15.028Z,93903.19
2023-09-08T06:21:43.572Z,93903.94
2023-09-08T06:24:11.602Z,93909.66
2023-09-08T06:26:41.131Z,93906.03
2023-09-08T06:29:10.030Z,93906.53
2023-09-08T06:31:38.685Z,93906.50
2023-09-08T06:34:07.446Z,93914.28
2023-09-08T06:36:36.112Z,93911.16
2023-09-08T06:39:06.343Z,93909.59
2023-09-08T06:41:34.936Z,93912.72
2023-09-08T06:44:03.499Z,93904.41
2023-09-08T06:46:32.173Z,93908.53
2023-09-08T06:49:02.314Z,93912.69
2023-09-08T06:51:32.582Z,93914.75
2023-09-08T06:54:02.632Z,93916.22
2023-09-08T06:56:31.798Z,93908.69
2023-09-08T06:59:00.475Z,93915.66
2023-09-08T07:01:29.398Z,93920.84
2023-09-08T07:03:58.279Z,93928.84
2023-09-08T07:06:27.026Z,93921.81
2023-09-08T07:08:56.207Z,93936.91
2023-09-08T07:11:24.902Z,93934.78
2023-09-08T07:13:53.544Z,93934.81
2023-09-08T07:16:22.305Z,93936.91
2023-09-08T07:18:50.942Z,93935.81
2023-09-08T07:21:19.750Z,93934.81
2023-09-08T07:23:48.541Z,93935.28
2023-09-08T07:26:17.167Z,93939.31
2023-09-08T07:28:45.851Z,93943.44
2023-09-08T07:31:14.724Z,93944.19
2023-09-08T07:33:43.488Z,93946.78
2023-09-08T07:36:12.796Z,93951.59
2023-09-08T07:38:41.493Z,93947.19
2023-09-08T07:41:10.311Z,93954.22
2023-09-08T07:43:42.883Z,93952.97
2023-09-08T07:46:11.539Z,93956.47
2023-09-08T07:48:40.469Z,93958.78
2023-09-08T07:51:09.383Z,93967.38
2023-09-08T07:53:38.539Z,93957.25
2023-09-08T07:56:07.425Z,93967.22
2023-09-08T07:58:36.470Z,93951.31
2023-09-08T08:01:05.308Z,93947.91
2023-09-08T08:03:33.927Z,93961.94
2023-09-08T08:06:02.568Z,93961.34
2023-09-08T08:08:31.276Z,93957.13
2023-09-08T08:11:00.057Z,93960.13
2023-09-08T08:13:28.827Z,93952.00
2023-09-08T08:15:57.373Z,93965.78
2023-09-08T08:18:26.097Z,93958.25
2023-09-08T08:20:54.959Z,93962.72
2023-09-08T08:23:23.529Z,93965.78
2023-09-08T08:25:52.614Z,93960.72
2023-09-08T08:28:21.216Z,93963.50
2023-09-08T08:30:50.010Z,93949.88
2023-09-08T08:33:18.822Z,93968.69
2023-09-08T08:35:54.810Z,93972.59
2023-09-08T08:38:23.493Z,93977.28
2023-09-08T08:40:52.070Z,93971.03
2023-09-08T08:43:21.814Z,93975.06
2023-09-08T08:45:51.936Z,93973.31
2023-09-08T08:48:23.509Z,93972.84
2023-09-08T08:50:53.416Z,93965.50
2023-09-08T08:53:23.654Z,93971.94
2023-09-08T08:55:56.342Z,93969.81
2023-09-08T08:58:28.894Z,93978.97
2023-09-08T09:00:59.827Z,93981.97
2023-09-08T09:03:33.543Z,93973.81
2023-09-08T09:06:03.127Z,93977.44
2023-09-08T09:08:32.566Z,93963.06
2023-09-08T09:11:01.204Z,93981.34
2023-09-08T09:13:29.832Z,93974.97
2023-09-08T09:16:03.703Z,93984.25
2023-09-08T09:18:33.587Z,93988.63
2023-09-08T09:21:04.032Z,93988.88
2023-09-08T09:23:37.238Z,93981.09
2023-09-08T09:26:09.238Z,93980.88
2023-09-08T09:28:50.426Z,93989.72
2023-09-08T09:31:19.039Z,93984.25
2023-09-08T09:33:48.101Z,93986.75
2023-09-08T09:36:23.720Z,93972.09
2023-09-08T09:38:52.512Z,93989.34
2023-09-08T09:41:21.103Z,93986.59
2023-09-08T09:43:50.046Z,93988.25
2023-09-08T09:46:18.710Z,93984.72
2023-09-08T09:48:47.258Z,93988.63
2023-09-08T09:51:20.948Z,93984.94
2023-09-08T09:53:50.972Z,93979.47
2023-09-08T09:56:25.549Z,93974.28
2023-09-08T09:58:56.550Z,93974.53
2023-09-08T10:01:27.581Z,93985.19
2023-09-08T10:03:57.628Z,93990.03
2023-09-08T10:06:28.602Z,93983.22
2023-09-08T10:08:57.731Z,93974.75
2023-09-08T10:11:31.724Z,93982.81
2023-09-08T10:14:02.698Z,93984.06
2023-09-08T10:16:37.146Z,93985.69
2023-09-08T10:19:11.246Z,93978.53
2023-09-08T10:21:45.419Z,93990.66
2023-09-08T10:24:47.541Z,93985.59
2023-09-08T10:27:21.546Z,93985.72
2023-09-08T10:29:51.227Z,93987.31
2023-09-08T10:32:20.985Z,93987.44
2023-09-08T10:34:51.427Z,93988.81
2023-09-08T10:37:28.089Z,93987.56
2023-09-08T10:39:57.177Z,93987.47
2023-09-08T10:42:29.196Z,93985.81
2023-09-08T10:45:04.637Z,93990.44
2023-09-08T10:47:56.624Z,93988.50
2023-09-08T10:50:36.659Z,93988.97
2023-09-08T10:53:21.593Z,93995.47
2023-09-08T10:56:15.947Z,93996.00
2023-09-08T10:58:45.253Z,93997.03
2023-09-08T11:01:21.722Z,93996.94
2023-09-08T11:03:52.751Z,93987.06
2023-09-08T11:06:26.129Z,93993.44
2023-09-08T11:08:58.453Z,93995.03
2023-09-08T11:11:28.079Z,94005.38
2023-09-08T11:13:56.664Z,94008.19
2023-09-08T11:16:31.371Z,94008.97
2023-09-08T11:19:00.325Z,94013.09
2023-09-08T11:21:29.362Z,94018.38
2023-09-08T11:23:58.332Z,94025.09
2023-09-08T11:26:27.066Z,94021.84
2023-09-08T11:28:56.749Z,94021.28
2023-09-08T11:31:25.302Z,94027.13
2023-09-08T11:33:57.549Z,94031.84
2023-09-08T11:36:26.104Z,94029.81
2023-09-08T11:38:55.326Z,94027.03
2023-09-08T11:41:26.406Z,94033.53
2023-09-08T11:43:55.306Z,94034.69
2023-09-08T11:46:24.551Z,94046.69
2023-09-08T11:48:53.214Z,94044.56
2023-09-08T11:51:26.232Z,94041.63
2023-09-08T11:53:55.607Z,94055.75
2023-09-08T11:56:24.407Z,94054.41
2023-09-08T11:58:54.154Z,94050.09
2023-09-08T12:01:23.041Z,94044.13
2023-09-08T12:04:00.459Z,94041.44
2023-09-08T12:06:32.812Z,94044.13
2023-09-08T12:09:06.990Z,94051.66
2023-09-08T12:11:43.838Z,94064.19
2023-09-08T12:14:17.001Z,94062.13
2023-09-08T12:16:46.330Z,94071.19
2023-09-08T12:19:34.238Z,94072.88
2023-09-08T12:22:05.370Z,94074.22
2023-09-08T12:24:52.573Z,94068.97
2023-09-08T12:27:22.190Z,94074.09
2023-09-08T12:30:02.888Z,94073.16
2023-09-08T12:32:33.647Z,94080.06
2023-09-08T12:35:05.299Z,94083.75
2023-09-08T12:37:36.216Z,94078.91
2023-09-08T12:40:05.205Z,94089.13
2023-09-08T12:42:35.651Z,94087.69
2023-09-08T12:45:08.182Z,94093.19
2023-09-08T12:47:37.901Z,94084.91
2023-09-08T12:50:07.474Z,94084.97
2023-09-08T12:52:36.262Z,94084.59
2023-09-08T12:55:04.995Z,94089.72
2023-09-08T12:57:33.854Z,94085.78
2023-09-08T13:00:02.557Z,94088.59
2023-09-08T13:02:31.381Z,94097.13
2023-09-08T13:05:00.575Z,94097.59
2023-09-08T13:07:29.680Z,94101.13
2023-09-08T13:09:58.369Z,94097.06
2023-09-08T13:12:27.432Z,94091.09
2023-09-08T13:14:56.286Z,94099.19
2023-09-08T13:17:24.968Z,94098.28
2023-09-08T13:19:53.610Z,94098.97
2023-09-08T13:22:22.181Z,94112.53
2023-09-08T13:24:50.703Z,94106.59
2023-09-08T13:27:20.462Z,94106.19
2023-09-08T13:29:48.977Z,94082.19
2023-09-08T13:32:17.942Z,94105.56
2023-09-08T13:34:46.898Z,94114.50
2023-09-08T13:37:17.281Z,94113.00
2023-09-08T13:39:45.711Z,94122.41
2023-09-08T13:42:14.338Z,94119.09
2023-09-08T13:44:42.831Z,94123.88
2023-09-08T13:47:11.723Z,94128.56
2023-09-08T13:49:41.543Z,94130.69
2023-09-08T13:52:12.420Z,94140.66
2023-09-08T13:54:45.259Z,94141.00
2023-09-08T13:57:14.796Z,94144.47
2023-09-08T13:59:43.878Z,94144.53
2023-09-08T14:04:48.775Z,94141.75
2023-09-08T14:07:22.556Z,94150.19
2023-09-08T14:10:05.329Z,94161.22
2023-09-08T14:12:35.967Z,94162.91
2023-09-08T14:15:05.755Z,94164.06
2023-09-08T14:17:34.284Z,94159.72
2023-09-08T14:20:02.991Z,94162.91
2023-09-08T14:22:31.575Z,94167.13
2023-09-08T14:25:00.194Z,94177.34
2023-09-08T14:27:28.702Z,94182.13
2023-09-08T14:29:57.436Z,94187.19
2023-09-08T14:32:25.816Z,94178.72
2023-09-08T14:34:54.523Z,94183.69
2023-09-08T14:37:23.202Z,94188.69
2023-09-08T14:39:51.956Z,94191.63
2023-09-08T14:42:20.516Z,94195.03
2023-09-08T14:44:49.172Z,94187.88
2023-09-08T14:47:17.726Z,94188.19
2023-09-08T14:49:46.331Z,94182.81
2023-09-08T14:52:14.838Z,94197.47
2023-09-08T14:54:43.763Z,94195.44
2023-09-08T14:57:12.172Z,94197.22
2023-09-08T14:59:40.700Z,94188.16
2023-09-08T15:02:11.533Z,94189.97
2023-09-08T15:04:40.406Z,94186.34
2023-09-08T15:07:09.321Z,94188.22
2023-09-08T15:09:38.711Z,94194.03
2023-09-08T15:12:07.834Z,94192.25
2023-09-08T15:14:36.446Z,94197.28
2023-09-08T15:17:05.299Z,94201.75
2023-09-08T15:19:33.914Z,94196.31
2023-09-08T15:22:02.505Z,94201.03
2023-09-08T15:24:31.078Z,94200.75
2023-09-08T15:26:59.722Z,94198.44
2023-09-08T15:29:28.313Z,94194.84
2023-09-08T15:31:57.028Z,94199.00
2023-09-08T15:34:27.451Z,94201.59
2023-09-08T15:36:56.321Z,94200.06
2023-09-08T15:39:24.978Z,94202.94
2023-09-08T15:41:53.521Z,94202.72
2023-09-08T15:44:22.045Z,94200.13
2023-09-08T15:46:50.444Z,94213.69
2023-09-08T15:49:21.113Z,94207.97
2023-09-08T15:51:57.293Z,94215.56
2023-09-08T15:54:32.794Z,94208.25
2023-09-08T15:57:01.501Z,94204.56
2023-09-08T15:59:30.057Z,94210.56
2023-09-08T16:01:58.656Z,94206.84
2023-09-08T16:04:27.486Z,94202.59
2023-09-08T16:06:56.500Z,94205.38
2023-09-08T16:09:25.438Z,94211.97
2023-09-08T16:11:54.043Z,94211.34
2023-09-08T16:14:22.561Z,94222.00
2023-09-08T16:16:51.387Z,94222.59
2023-09-08T16:19:20.645Z,94218.91
2023-09-08T16:21:49.200Z,94216.63
2023-09-08T16:24:17.723Z,94206.09
2023-09-08T16:26:46.765Z,94201.00
2023-09-08T16:29:15.359Z,94215.75
2023-09-08T16:31:43.860Z,94212.06
2023-09-08T16:34:12.218Z,94212.06
2023-09-08T16:36:40.596Z,94218.75
2023-09-08T16:39:09.164Z,94214.06
2023-09-08T16:41:37.759Z,94221.03
2023-09-08T16:44:06.455Z,94227.41
2023-09-08T16:46:35.123Z,94232.00
2023-09-08T16:49:03.504Z,94236.41
2023-09-08T16:51:32.209Z,94239.41
2023-09-08T16:54:00.801Z,94240.28
2023-09-08T16:56:29.500Z,94232.81
2023-09-08T16:58:58.002Z,94232.69
2023-09-08T17:01:26.595Z,94227.13
2023-09-08T17:03:55.549Z,94232.22
2023-09-08T17:06:24.687Z,94233.41
2023-09-08T17:08:53.365Z,94227.66
2023-09-08T17:11:21.720Z,94229.34
2023-09-08T17:13:50.237Z,94222.22
2023-09-08T17:16:19.002Z,94232.44
2023-09-08T17:18:47.812Z,94229.22
2023-09-08T17:21:16.532Z,94228.47
2023-09-08T17:23:45.182Z,94231.31
2023-09-08T17:26:15.067Z,94226.84
2023-09-08T17:28:43.650Z,94233.81
2023-09-08T17:31:12.280Z,94223.59
2023-09-08T17:33:41.048Z,94236.97
2023-09-08T17:36:10.002Z,94232.03
2023-09-08T17:38:38.969Z,94234.13
2023-09-08T17:41:07.360Z,94231.88
2023-09-08T17:43:36.117Z,94231.56
2023-09-08T17:46:05.242Z,94235.44
2023-09-08T17:48:33.858Z,94226.38
2023-09-08T17:51:02.398Z,94229.50
2023-09-08T17:53:31.004Z,94229.47
2023-09-08T17:55:59.477Z,94226.75
2023-09-08T17:58:27.834Z,94223.38
2023-09-08T18:00:56.485Z,94228.44
2023-09-08T18:03:25.233Z,94230.28
2023-09-08T18:05:54.327Z,94231.38
2023-09-08T18:08:22.816Z,94230.25
2023-09-08T18:10:51.526Z,94230.91
2023-09-08T18:13:20.771Z,94230.84
2023-09-08T18:15:49.415Z,94229.13
2023-09-08T18:18:17.879Z,94228.06
2023-09-08T18:20:46.452Z,94231.06
2023-09-08T18:23:15.027Z,94238.13
2023-09-08T18:25:43.465Z,94236.78
2023-09-08T18:28:12.062Z,94237.00
2023-09-08T18:30:42.963Z,94237.59
2023-09-08T18:33:12.471Z,94237.06
2023-09-08T18:35:42.423Z,94242.81
2023-09-08T18:38:11.395Z,94235.66
2023-09-08T18:40:46.629Z,94232.56
2023-09-08T18:43:20.419Z,94229.94
2023-09-08T18:45:49.163Z,94242.75
2023-09-08T18:48:17.808Z,94241.06
2023-09-08T18:50:46.412Z,94249.50
2023-09-08T18:53:14.775Z,94239.41
2023-09-08T18:55:43.367Z,94244.50
2023-09-08T18:58:12.102Z,94250.56
2023-09-08T19:00:45.996Z,94244.63
2023-09-08T19:03:14.889Z,94235.97
2023-09-08T19:05:44.129Z,94243.00
2023-09-08T19:08:12.731Z,94235.34
2023-09-08T19:10:41.352Z,94236.44
2023-09-08T19:13:13.984Z,94234.13
2023-09-08T19:15:42.988Z,94231.78
2023-09-08T19:18:11.643Z,94238.00
2023-09-08T19:20:40.815Z,94227.69
2023-09-08T19:23:10.532Z,94239.72
2023-09-08T19:25:44.600Z,94237.22
2023-09-08T19:28:16.276Z,94231.19
2023-09-08T19:30:52.886Z,94223.25
2023-09-08T19:33:21.565Z,94231.81
2023-09-08T19:35:50.601Z,94229.94
2023-09-08T19:38:22.151Z,94225.81
2023-09-08T19:40:50.746Z,94227.00
2023-09-08T19:43:19.276Z,94225.94
2023-09-08T19:45:47.873Z,94228.81
2023-09-08T19:48:16.295Z,94225.88
2023-09-08T19:50:46.424Z,94230.56
2023-09-08T19:53:14.962Z,94230.06
2023-09-08T19:55:43.473Z,94238.75
2023-09-08T19:58:11.870Z,94236.59
2023-09-08T20:00:41.296Z,94228.66
2023-09-08T20:03:09.894Z,94227.59
2023-09-08T20:05:39.109Z,94239.69
2023-09-08T20:08:07.116Z,94232.41
2023-09-08T20:10:35.524Z,94232.09
2023-09-08T20:13:04.956Z,94231.59
2023-09-08T20:15:34.597Z,94229.84
2023-09-08T20:18:04.957Z,94226.09
2023-09-08T20:20:33.601Z,94230.44
2023-09-08T20:23:02.685Z,94231.66
2023-09-08T20:25:31.275Z,94231.16
2023-09-08T20:27:59.775Z,94233.59
2023-09-08T20:30:28.394Z,94230.69
2023-09-08T20:32:56.955Z,94228.94
2023-09-08T20:35:25.518Z,94230.03
2023-09-08T20:37:54.170Z,94234.34
2023-09-08T20:40:22.547Z,94223.59
2023-09-08T20:42:51.480Z,94218.53
2023-09-08T20:45:20.081Z,94225.84
2023-09-08T20:47:50.953Z,94228.50
2023-09-08T20:50:19.955Z,94220.91
2023-09-08T20:52:47.891Z,94222.59
2023-09-08T20:55:16.704Z,94222.44
2023-09-08T20:57:45.281Z,94226.13
2023-09-08T21:00:14.528Z,94230.72
2023-09-08T21:02:43.214Z,94231.34
2023-09-08T21:05:12.745Z,94231.59
2023-09-08T21:07:41.277Z,94233.19
2023-09-08T21:10:10.207Z,94229.91
2023-09-08T21:12:38.945Z,94231.94
2023-09-08T21:15:08.295Z,94231.63
2023-09-08T21:17:36.886Z,94234.56
2023-09-08T21:20:07.085Z,94234.88
2023-09-08T21:22:35.678Z,94228.34
2023-09-08T21:25:04.799Z,94240.50
2023-09-08T21:27:33.338Z,94230.88
2023-09-08T21:30:01.757Z,94237.34
2023-09-08T21:32:30.357Z,94233.94
2023-09-08T21:34:58.829Z,94233.44
2023-09-08T21:37:27.313Z,94228.97
2023-09-08T21:39:56.027Z,94230.97
2023-09-08T21:42:24.631Z,94234.63
2023-09-08T21:44:53.246Z,94235.13
2023-09-08T21:47:21.824Z,94232.69
2023-09-08T21:49:50.315Z,94234.88
2023-09-08T21:52:28.011Z,94238.59
2023-09-08T21:55:04.642Z,94239.63
2023-09-08T21:57:33.219Z,94238.28
2023-09-08T22:00:01.726Z,94238.63
2023-09-08T22:02:30.529Z,94242.97
2023-09-08T22:04:59.990Z,94243.44
2023-09-08T22:07:28.589Z,94242.63
2023-09-08T22:09:57.374Z,94237.81
2023-09-08T22:12:25.557Z,94236.69
2023-09-08T22:14:54.815Z,94239.44
2023-09-08T22:17:22.728Z,94238.16
2023-09-08T22:19:52.243Z,94233.75
2023-09-08T22:22:21.146Z,94239.06
2023-09-08T22:24:49.752Z,94237.38
2023-09-08T22:27:18.368Z,94241.88
2023-09-08T22:29:46.904Z,94244.06
2023-09-08T22:32:15.404Z,94246.69
2023-09-08T22:34:43.945Z,94248.88
2023-09-08T22:37:12.628Z,94251.19
2023-09-08T22:39:41.185Z,94248.31
2023-09-08T22:42:09.776Z,94255.88
2023-09-08T22:44:38.263Z,94248.31
2023-09-08T22:47:12.405Z,94254.88
2023-09-08T22:50:01.811Z,94257.22
2023-09-08T22:52:33.360Z,94249.44
2023-09-08T22:55:13.056Z,94259.22
2023-09-08T22:57:51.487Z,94259.72
2023-09-08T23:00:20.184Z,94270.44
2023-09-08T23:02:49.186Z,94254.25
2023-09-08T23:05:18.072Z,94257.91
2023-09-08T23:07:47.051Z,94258.19
2023-09-08T23:10:16.243Z,94257.09
2023-09-08T23:12:45.358Z,94255.81
2023-09-08T23:15:14.073Z,94260.41
2023-09-08T23:17:42.813Z,94257.00
2023-09-08T23:20:17.409Z,94264.09
2023-09-08T23:22:46.679Z,94261.78
2023-09-08T23:25:15.355Z,94271.72
2023-09-08T23:27:43.842Z,94257.25
2023-09-08T23:30:12.932Z,94264.22
2023-09-08T23:32:43.455Z,94257.31
2023-09-08T23:35:14.362Z,94261.63
2023-09-08T23:37:43.138Z,94271.41
2023-09-08T23:40:14.639Z,94270.03
2023-09-08T23:42:43.211Z,94276.94
2023-09-08T23:45:12.204Z,94278.94
2023-09-08T23:47:41.227Z,94272.00
2023-09-08T23:50:10.548Z,94277.09
2023-09-08T23:52:39.159Z,94282.06
2023-09-08T23:55:07.516Z,94282.28
2023-09-08T23:57:36.140Z,94276.84
